Time;durP1;ratioP1;P1;durP2;ratioP2;P2;SDS_P1;SDS_P2;PMS_P1;PMS_P2;Temp;Humidity;BMP_temperature;BMP_pressure;BME280_temperature;BME280_humidity;BME280_pressure;Samples;Min_cycle;Max_cycle;Signal;HPM_P1;HPM_P2
2023/06/10 00:01:46;;;;;;;4.85;2.50;;;;;;;14.32;100.00;98338.81;5159800;27;20061;-54
2023/06/10 00:04:12;;;;;;;5.13;2.90;;;;;;;14.31;100.00;98375.09;5161490;27;20058;-59
2023/06/10 00:06:39;;;;;;;5.75;2.33;;;;;;;14.28;100.00;98351.88;5162856;27;20421;-55
2023/06/10 00:09:07;;;;;;;6.45;2.80;;;;;;;14.12;100.00;98374.47;5162899;27;20311;-57
2023/06/10 00:11:33;;;;;;;4.30;2.55;;;;;;;14.14;100.00;98387.84;5161151;27;20434;-65
2023/06/10 00:13:59;;;;;;;5.20;2.60;;;;;;;14.01;100.00;98395.06;5161155;27;20104;-63
2023/06/10 00:16:25;;;;;;;4.10;2.47;;;;;;;13.91;100.00;98387.66;5161094;27;20057;-55
2023/06/10 00:18:52;;;;;;;5.32;2.38;;;;;;;13.79;100.00;98383.41;5161032;27;20141;-61
2023/06/10 00:21:19;;;;;;;5.43;2.15;;;;;;;13.83;100.00;98403.47;5160834;27;20471;-59
2023/06/10 00:23:44;;;;;;;9.98;2.42;;;;;;;13.88;100.00;98423.09;5160975;27;20043;-64
2023/06/10 00:26:10;;;;;;;9.30;2.53;;;;;;;13.85;100.00;98420.34;5161054;27;20277;-64
2023/06/10 00:28:36;;;;;;;3.88;2.00;;;;;;;13.81;100.00;98425.91;5161039;27;20408;-61
2023/06/10 00:31:04;;;;;;;3.00;2.17;;;;;;;13.77;100.00;98425.16;5161044;27;20126;-57
2023/06/10 00:36:15;;;;;;;6.28;2.20;;;;;;;13.71;100.00;98439.75;5161003;27;20084;-60
2023/06/10 00:38:41;;;;;;;2.30;2.05;;;;;;;13.75;100.00;98444.03;5161003;27;20134;-59
2023/06/10 00:41:07;;;;;;;2.88;2.20;;;;;;;13.77;100.00;98457.41;5160705;27;20138;-56
2023/06/10 00:43:33;;;;;;;4.35;2.28;;;;;;;13.78;100.00;98448.75;5160604;27;20107;-60
2023/06/10 00:45:59;;;;;;;2.95;2.20;;;;;;;13.72;100.00;98477.91;5160589;27;20167;-65
2023/06/10 00:48:26;;;;;;;2.90;2.20;;;;;;;13.85;100.00;98494.75;5160476;27;20078;-59
2023/06/10 00:50:52;;;;;;;5.05;2.13;;;;;;;13.67;100.00;98480.31;5160431;27;20046;-59
2023/06/10 00:53:20;;;;;;;2.72;2.05;;;;;;;13.72;100.00;98494.41;5160639;27;20061;-54
2023/06/10 00:55:46;;;;;;;8.25;2.08;;;;;;;13.65;100.00;98483.44;5160135;27;20058;-59
2023/06/10 00:58:13;;;;;;;2.78;1.90;;;;;;;13.66;100.00;98490.50;5160753;27;20415;-56
2023/06/10 01:00:39;;;;;;;7.97;2.22;;;;;;;13.68;100.00;98503.91;5160147;27;20050;-59
2023/06/10 01:03:07;;;;;;;2.40;1.95;;;;;;;13.67;100.00;98522.41;5160520;27;20361;-60
2023/06/10 01:05:33;;;;;;;10.05;2.30;;;;;;;13.54;100.00;98513.81;5159965;27;20042;-60
2023/06/10 01:08:07;;;;;;;2.92;2.15;;;;;;;13.60;100.00;98534.22;5160228;27;20043;-62
2023/06/10 01:10:36;;;;;;;2.58;2.03;;;;;;;13.59;100.00;98537.38;5160241;27;20150;-59
2023/06/10 01:13:04;;;;;;;4.90;2.00;;;;;;;13.50;100.00;98524.06;5159709;27;20103;-55
2023/06/10 01:15:30;;;;;;;6.75;2.42;;;;;;;13.65;100.00;98550.31;5160253;27;20320;-60
2023/06/10 01:17:59;;;;;;;4.30;2.00;;;;;;;13.50;100.00;98561.81;5160258;27;20047;-56
2023/06/10 01:20:26;;;;;;;18.10;2.72;;;;;;;13.41;100.00;98584.25;5160225;27;20134;-56
2023/06/10 01:22:54;;;;;;;11.18;2.72;;;;;;;13.40;100.00;98574.44;5159758;27;20051;-56
2023/06/10 01:25:20;;;;;;;3.05;2.20;;;;;;;13.41;100.00;98556.72;5160160;27;20046;-56
2023/06/10 01:27:50;;;;;;;3.45;1.80;;;;;;;13.51;100.00;98588.16;5159627;27;20051;-58
2023/06/10 01:30:22;;;;;;;6.50;2.70;;;;;;;13.64;100.00;98614.88;5160067;27;20043;-65
2023/06/10 01:32:51;;;;;;;4.10;1.83;;;;;;;13.33;100.00;98597.28;5159812;27;20137;-53
2023/06/10 01:35:19;;;;;;;6.20;2.40;;;;;;;13.32;100.00;98581.13;5159452;27;20479;-65
2023/06/10 01:37:47;;;;;;;2.78;2.30;;;;;;;13.28;100.00;98600.41;5159644;27;20391;-65
2023/06/10 01:40:14;;;;;;;11.23;2.33;;;;;;;13.36;100.00;98603.94;5159416;27;20133;-53
2023/06/10 01:42:40;;;;;;;11.15;2.15;;;;;;;13.40;100.00;98615.75;5159722;27;20479;-56
2023/06/10 01:45:07;;;;;;;1.80;1.70;;;;;;;13.54;100.00;98650.72;5159525;27;20047;-56
2023/06/10 01:47:32;;;;;;;2.72;2.10;;;;;;;13.42;100.00;98629.88;5159700;27;20138;-62
2023/06/10 01:49:58;;;;;;;3.45;2.25;;;;;;;13.41;100.00;98626.34;5159393;27;20054;-59
2023/06/10 01:52:25;;;;;;;9.73;1.83;;;;;;;13.59;100.00;98655.81;5159692;27;20058;-64
2023/06/10 01:54:51;;;;;;;3.95;2.03;;;;;;;13.60;100.00;98688.47;5159208;27;20042;-62
2023/06/10 01:57:18;;;;;;;4.25;1.67;;;;;;;13.33;100.00;98703.84;5159656;27;20053;-65
2023/06/10 01:59:44;;;;;;;3.22;1.92;;;;;;;13.34;100.00;98705.41;5159569;27;20319;-60
2023/06/10 02:02:10;;;;;;;2.22;1.70;;;;;;;13.39;100.00;98735.28;5159564;27;20053;-59
2023/06/10 02:04:36;;;;;;;2.65;1.70;;;;;;;13.25;100.00;98694.78;5159390;27;20054;-55
2023/06/10 02:07:04;;;;;;;6.35;2.50;;;;;;;13.54;100.00;98703.81;5159205;27;20095;-57
2023/06/10 02:09:30;;;;;;;5.65;2.28;;;;;;;13.42;100.00;98718.75;5159390;27;20073;-56
2023/06/10 02:11:55;;;;;;;1.70;1.60;;;;;;;13.41;100.00;98744.75;5159081;27;20050;-55
2023/06/10 02:14:22;;;;;;;5.80;2.00;;;;;;;13.25;100.00;98727.81;5159180;27;20395;-59
2023/06/10 02:16:48;;;;;;;2.60;2.38;;;;;;;13.40;100.00;98728.63;5158975;27;20047;-56
2023/06/10 02:19:14;;;;;;;3.03;1.80;;;;;;;13.36;100.00;98733.31;5159514;27;20053;-54
2023/06/10 02:21:40;;;;;;;1.65;1.55;;;;;;;13.41;100.00;98744.75;5158753;27;20057;-59
2023/06/10 02:24:07;;;;;;;5.30;1.83;;;;;;;13.31;100.00;98766.78;5158306;27;20042;-62
2023/06/10 02:26:33;;;;;;;3.25;1.70;;;;;;;13.18;100.00;98782.84;5158654;27;20142;-63
2023/06/10 02:28:58;;;;;;;2.03;1.55;;;;;;;13.21;100.00;98748.25;5158942;27;20046;-56
2023/06/10 02:31:26;;;;;;;3.90;1.67;;;;;;;13.23;100.00;98770.66;5158761;27;20046;-53
2023/06/10 02:33:52;;;;;;;5.82;1.65;;;;;;;13.18;100.00;98760.81;5158786;27;20065;-59
2023/06/10 02:36:18;;;;;;;1.30;1.20;;;;;;;13.09;100.00;98755.69;5158890;27;20046;-56
2023/06/10 02:38:43;;;;;;;2.95;2.13;;;;;;;13.33;100.00;98769.94;5158574;27;20042;-55
2023/06/10 02:41:09;;;;;;;1.90;1.63;;;;;;;13.21;100.00;98759.25;5158739;27;20047;-58
2023/06/10 02:43:35;;;;;;;8.18;2.15;;;;;;;13.33;100.00;98784.47;5158885;27;20082;-58
2023/06/10 02:46:01;;;;;;;2.10;1.63;;;;;;;13.62;100.00;98793.50;5159083;27;20352;-64
2023/06/10 02:48:28;;;;;;;1.65;1.55;;;;;;;13.30;100.00;98778.97;5158613;27;20141;-64
2023/06/10 02:50:55;;;;;;;3.13;1.92;;;;;;;12.86;100.00;98758.00;5159154;27;20043;-66
2023/06/10 02:53:21;;;;;;;3.08;1.70;;;;;;;13.23;100.00;98734.88;5158732;27;20050;-65
2023/06/10 02:55:47;;;;;;;3.03;1.52;;;;;;;13.40;100.00;98775.44;5158977;27;20089;-65
2023/06/10 02:58:13;;;;;;;5.18;1.90;;;;;;;13.31;100.00;98770.31;5158610;27;20054;-60
2023/06/10 03:00:41;;;;;;;3.92;2.20;;;;;;;13.12;100.00;98767.91;5158694;27;20051;-59
2023/06/10 03:03:06;;;;;;;3.25;1.73;;;;;;;13.08;100.00;98754.13;5158586;27;20065;-65
2023/06/10 03:05:33;;;;;;;2.53;1.60;;;;;;;12.88;100.00;98742.69;5158451;27;20078;-57
2023/06/10 03:07:59;;;;;;;2.22;1.58;;;;;;;13.13;100.00;98756.50;5158603;27;20385;-54
2023/06/10 03:10:25;;;;;;;2.03;1.60;;;;;;;13.29;100.00;98763.59;5158055;27;20078;-55
2023/06/10 03:12:51;;;;;;;3.28;1.70;;;;;;;13.07;100.00;98771.81;5158470;27;20065;-63
2023/06/10 03:15:17;;;;;;;2.83;1.85;;;;;;;13.11;100.00;98758.84;5158040;27;20043;-65
2023/06/10 03:17:43;;;;;;;4.63;1.90;;;;;;;13.22;100.00;98769.09;5158690;27;20145;-65
2023/06/10 03:20:10;;;;;;;5.57;1.88;;;;;;;13.09;100.00;98761.19;5158059;27;20115;-64
2023/06/10 03:22:37;;;;;;;2.97;1.67;;;;;;;12.99;100.00;98783.19;5158592;27;20046;-55
2023/06/10 03:25:04;;;;;;;2.80;1.77;;;;;;;13.08;100.00;98745.09;5157840;27;20078;-61
2023/06/10 03:27:30;;;;;;;2.13;1.48;;;;;;;13.14;100.00;98774.59;5157903;27;20078;-65
2023/06/10 03:29:56;;;;;;;4.78;2.60;;;;;;;13.45;100.00;98826.56;5158216;27;20051;-59
2023/06/10 03:32:22;;;;;;;3.65;1.60;;;;;;;12.81;100.00;98807.94;5157992;27;20511;-57
2023/06/10 03:34:48;;;;;;;2.95;1.80;;;;;;;13.23;100.00;98814.69;5159194;27;20392;-56
2023/06/10 03:37:14;;;;;;;4.88;1.52;;;;;;;13.34;100.00;98812.78;5161426;27;20416;-55
2023/06/10 03:39:41;;;;;;;3.05;1.63;;;;;;;13.34;100.00;98829.31;5161879;27;20050;-65
2023/06/10 03:42:07;;;;;;;5.55;1.50;;;;;;;13.43;100.00;98843.50;5161475;27;20137;-63
2023/06/10 03:44:33;;;;;;;3.20;1.77;;;;;;;13.37;100.00;98837.56;5161781;27;20082;-64
2023/06/10 03:46:59;;;;;;;13.18;2.00;;;;;;;13.53;100.00;98861.16;5161656;27;20444;-64
2023/06/10 03:49:26;;;;;;;3.30;1.55;;;;;;;13.66;100.00;98873.38;5161758;27;20057;-56
2023/06/10 03:51:53;;;;;;;3.72;1.50;;;;;;;13.54;100.00;98871.81;5161239;27;20043;-65
2023/06/10 03:54:18;;;;;;;5.95;1.70;;;;;;;13.76;100.00;98882.84;5161700;27;20050;-56
2023/06/10 03:56:45;;;;;;;1.50;1.40;;;;;;;13.52;100.00;98881.63;5161426;27;20464;-56
2023/06/10 03:59:11;;;;;;;4.25;1.63;;;;;;;13.59;100.00;98882.44;5161402;27;20066;-53
2023/06/10 04:01:38;;;;;;;3.65;1.50;;;;;;;13.72;100.00;98874.56;5161149;27;20214;-55
2023/06/10 04:04:04;;;;;;;11.40;1.88;;;;;;;13.31;100.00;98852.09;5161203;27;20050;-56
2023/06/10 04:06:30;;;;;;;8.60;1.42;;;;;;;13.24;100.00;98832.81;5161001;27;20412;-62
2023/06/10 04:08:56;;;;;;;3.00;1.63;;;;;;;13.42;100.00;98834.41;5161152;27;20336;-59
2023/06/10 04:11:23;;;;;;;2.00;1.45;;;;;;;13.61;100.00;98855.28;5161362;27;20115;-62
2023/06/10 04:13:50;;;;;;;2.63;1.70;;;;;;;13.39;100.00;98829.72;5161046;27;20150;-59
2023/06/10 04:16:16;;;;;;;2.63;1.33;;;;;;;13.65;100.00;98847.81;5161489;27;20133;-57
2023/06/10 04:18:42;;;;;;;3.50;1.30;;;;;;;13.52;100.00;98863.16;5160940;27;20054;-56
2023/06/10 04:21:08;;;;;;;1.33;1.23;;;;;;;13.41;100.00;98838.34;5161344;27;20058;-65
2023/06/10 04:23:36;;;;;;;3.67;1.70;;;;;;;13.56;100.00;98861.22;5160665;27;20046;-60
2023/06/10 04:26:02;;;;;;;7.35;1.67;;;;;;;13.55;100.00;98867.88;5161034;27;20163;-65
2023/06/10 04:28:28;;;;;;;4.65;1.35;;;;;;;13.49;100.00;98833.63;5160954;27;20102;-64
2023/06/10 04:30:54;;;;;;;2.63;1.48;;;;;;;13.42;100.00;98826.16;5165083;27;20101;-59
2023/06/10 04:33:20;;;;;;;3.63;1.45;;;;;;;13.39;100.00;98824.22;5165490;27;20133;-63
2023/06/10 04:35:47;;;;;;;2.88;1.55;;;;;;;13.45;100.00;98832.84;5162094;27;20061;-62
2023/06/10 04:38:13;;;;;;;9.55;1.60;;;;;;;13.47;100.00;98825.00;5160877;27;20062;-64
2023/06/10 04:40:40;;;;;;;1.98;1.75;;;;;;;13.70;100.00;98854.13;5160748;27;20078;-55
2023/06/10 04:43:06;;;;;;;9.25;2.25;;;;;;;13.99;100.00;98836.38;5160895;27;20097;-56
2023/06/10 04:45:32;;;;;;;2.08;1.52;;;;;;;13.87;100.00;98876.16;5160466;27;20051;-56
2023/06/10 04:47:58;;;;;;;3.85;1.48;;;;;;;13.74;100.00;98843.88;5160108;27;20130;-60
2023/06/10 04:50:24;;;;;;;3.63;1.80;;;;;;;13.82;100.00;98861.97;5160316;27;20168;-55
2023/06/10 04:52:50;;;;;;;2.05;1.23;;;;;;;13.90;100.00;98880.09;5160832;27;20054;-64
2023/06/10 04:55:16;;;;;;;2.67;1.60;;;;;;;14.39;100.00;98910.75;5160645;27;20099;-59
2023/06/10 04:57:42;;;;;;;1.95;1.50;;;;;;;13.88;100.00;98899.00;5160316;27;20047;-54
2023/06/10 05:00:09;;;;;;;2.35;1.83;;;;;;;14.30;100.00;98859.59;5160276;27;20046;-58
2023/06/10 05:02:35;;;;;;;1.85;1.73;;;;;;;14.33;100.00;98877.31;5160358;27;20058;-65
2023/06/10 05:05:02;;;;;;;3.47;1.70;;;;;;;14.41;100.00;98889.88;5160498;27;20153;-64
2023/06/10 05:07:28;;;;;;;3.97;1.63;;;;;;;14.31;100.00;98883.19;5160554;27;20057;-66
2023/06/10 05:09:53;;;;;;;3.58;1.83;;;;;;;14.09;100.00;98845.81;5160300;27;20050;-64
2023/06/10 05:12:19;;;;;;;3.45;1.90;;;;;;;14.30;100.00;98850.53;5160184;27;20051;-60
2023/06/10 05:14:46;;;;;;;2.53;1.80;;;;;;;14.16;100.00;98837.56;5160555;27;20078;-58
2023/06/10 05:17:12;;;;;;;2.25;1.80;;;;;;;13.98;100.00;98845.84;5160043;27;20058;-62
2023/06/10 05:19:38;;;;;;;3.33;2.08;;;;;;;13.92;100.00;98805.28;5160506;27;20137;-65
2023/06/10 05:22:05;;;;;;;5.20;1.90;;;;;;;14.20;100.00;98808.00;5159828;27;20057;-65
2023/06/10 05:24:31;;;;;;;3.97;2.30;;;;;;;13.82;100.00;98782.09;5160276;27;20055;-57
2023/06/10 05:26:57;;;;;;;9.48;2.30;;;;;;;14.51;100.00;98824.88;5160102;27;20084;-53
2023/06/10 05:29:23;;;;;;;2.22;1.88;;;;;;;16.02;100.00;98969.28;5160046;27;20050;-56
2023/06/10 05:31:49;;;;;;;2.90;2.05;;;;;;;16.32;100.00;99043.31;5160038;27;20078;-55
2023/06/10 05:34:15;;;;;;;5.32;3.10;;;;;;;17.78;100.00;99110.41;5159686;27;20427;-54
2023/06/10 05:36:41;;;;;;;1.58;1.42;;;;;;;17.29;100.00;99125.59;5160125;27;20091;-60
2023/06/10 05:39:09;;;;;;;5.25;1.92;;;;;;;17.54;100.00;99128.91;5160077;27;20051;-61
2023/06/10 05:41:35;;;;;;;2.38;1.92;;;;;;;17.62;100.00;99126.81;5160148;27;20139;-58
2023/06/10 05:44:01;;;;;;;3.97;2.08;;;;;;;17.61;100.00;99137.13;5159583;27;20059;-54
2023/06/10 05:46:27;;;;;;;5.15;1.83;;;;;;;18.14;100.00;99154.34;5160003;27;20049;-56
2023/06/10 05:48:53;;;;;;;10.27;3.40;;;;;;;18.72;100.00;99184.91;5159496;27;20133;-61
2023/06/10 05:51:19;;;;;;;4.95;1.83;;;;;;;18.25;100.00;99176.41;5159880;27;20289;-64
2023/06/10 05:53:46;;;;;;;2.75;1.90;;;;;;;19.92;100.00;99197.97;5159348;27;20141;-67
2023/06/10 05:56:13;;;;;;;4.78;2.00;;;;;;;18.46;100.00;99184.47;5159355;27;20475;-55
2023/06/10 05:58:39;;;;;;;5.30;1.60;;;;;;;19.19;100.00;99188.56;5158380;27;20133;-61
2023/06/10 06:01:04;;;;;;;7.38;2.30;;;;;;;18.55;100.00;99178.38;5159310;27;20073;-69
2023/06/10 06:03:30;;;;;;;6.90;2.47;;;;;;;19.20;100.00;99184.56;5159501;27;20082;-67
2023/06/10 06:05:56;;;;;;;4.78;1.95;;;;;;;19.54;100.00;99189.13;5159503;27;20053;-65
2023/06/10 06:08:22;;;;;;;7.28;2.00;;;;;;;19.10;100.00;99171.63;5159528;27;20142;-60
2023/06/10 06:10:48;;;;;;;5.50;2.17;;;;;;;18.57;100.00;99170.44;5159205;27;20416;-56
2023/06/10 06:13:15;;;;;;;5.68;2.13;;;;;;;18.74;100.00;99183.28;5159452;27;20404;-55
2023/06/10 06:15:41;;;;;;;5.38;1.80;;;;;;;19.43;100.00;99180.97;5158969;27;20099;-57
2023/06/10 06:18:06;;;;;;;5.35;1.80;;;;;;;19.85;100.00;99214.78;5159592;27;20042;-53
2023/06/10 06:20:32;;;;;;;14.43;2.72;;;;;;;19.83;100.00;99210.88;5158932;27;20373;-56
2023/06/10 06:22:58;;;;;;;10.13;2.80;;;;;;;20.38;100.00;99217.72;5158933;27;20499;-61
2023/06/10 06:25:24;;;;;;;6.03;1.98;;;;;;;20.71;100.00;99231.78;5159107;27;20082;-61
2023/06/10 06:27:50;;;;;;;3.72;1.63;;;;;;;20.29;100.00;99211.94;5159117;27;20199;-64
2023/06/10 06:30:17;;;;;;;12.68;2.05;;;;;;;20.03;100.00;99222.03;5159034;27;20107;-66
2023/06/10 06:32:42;;;;;;;5.35;2.65;;;;;;;19.52;100.00;99209.00;5158901;27;20141;-64
2023/06/10 06:35:09;;;;;;;3.97;2.00;;;;;;;19.65;100.00;99191.72;5159295;27;20154;-66
2023/06/10 06:37:35;;;;;;;7.03;2.10;;;;;;;19.87;100.00;99206.81;5159232;27;20129;-57
2023/06/10 06:40:02;;;;;;;8.80;3.03;;;;;;;20.91;100.00;99210.97;5159122;27;20053;-56
2023/06/10 06:42:28;;;;;;;2.42;2.22;;;;;;;20.52;100.00;99219.44;5158725;27;20051;-57
2023/06/10 06:44:54;;;;;;;2.55;1.95;;;;;;;20.18;100.00;99234.44;5159675;27;20354;-58
2023/06/10 06:47:21;;;;;;;3.65;2.80;;;;;;;21.03;99.85;99244.97;5159794;27;20053;-61
2023/06/10 06:49:47;;;;;;;4.68;2.28;;;;;;;20.02;100.00;99246.25;5159835;27;20332;-67
2023/06/10 06:52:13;;;;;;;6.10;2.30;;;;;;;19.78;100.00;99241.97;5159205;27;20053;-62
2023/06/10 06:54:39;;;;;;;2.13;1.90;;;;;;;19.61;100.00;99205.69;5158965;27;20099;-56
2023/06/10 06:57:05;;;;;;;4.32;2.17;;;;;;;20.21;100.00;99230.78;5158851;27;20112;-56
2023/06/10 06:59:31;;;;;;;6.20;2.35;;;;;;;20.96;100.00;99226.41;5158616;27;20298;-61
2023/06/10 07:01:57;;;;;;;3.90;2.15;;;;;;;20.27;100.00;99242.22;5158534;27;20085;-60
2023/06/10 07:04:24;;;;;;;4.55;2.22;;;;;;;20.74;100.00;99237.25;5158209;27;20053;-67
2023/06/10 07:06:50;;;;;;;6.50;2.08;;;;;;;20.73;100.00;99237.72;5158622;27;20452;-66
2023/06/10 07:09:16;;;;;;;6.47;3.00;;;;;;;21.09;100.00;99232.06;5158194;27;20046;-64
2023/06/10 07:11:42;;;;;;;6.35;2.80;;;;;;;21.00;100.00;99238.25;5158590;27;20051;-58
2023/06/10 07:14:08;;;;;;;6.03;2.90;;;;;;;21.75;96.47;99242.00;5158240;27;20062;-54
2023/06/10 07:16:34;;;;;;;7.55;2.15;;;;;;;21.73;96.05;99258.41;5158717;27;20315;-56
2023/06/10 07:19:00;;;;;;;11.05;2.05;;;;;;;20.97;99.28;99255.84;5158213;27;20408;-54
2023/06/10 07:21:28;;;;;;;4.93;2.10;;;;;;;20.45;100.00;99240.63;5158555;27;20071;-54
2023/06/10 07:23:54;;;;;;;12.15;3.30;;;;;;;21.08;100.00;99247.22;5158248;27;20351;-64
2023/06/10 07:26:22;;;;;;;5.82;2.28;;;;;;;21.48;100.00;99244.31;5158152;27;20054;-57
2023/06/10 07:28:48;;;;;;;6.50;1.95;;;;;;;21.87;98.31;99251.66;5158208;27;20146;-53
2023/06/10 07:31:14;;;;;;;7.55;2.40;;;;;;;22.26;94.93;99261.00;5158099;27;20043;-60
2023/06/10 07:33:40;;;;;;;8.13;2.80;;;;;;;22.27;95.05;99268.94;5158416;27;20130;-61
2023/06/10 07:36:07;;;;;;;5.18;2.75;;;;;;;21.74;95.94;99267.56;5158007;27;20050;-64
2023/06/10 07:38:34;;;;;;;6.88;2.40;;;;;;;21.23;99.94;99253.28;5158293;27;20107;-56
2023/06/10 07:41:00;;;;;;;4.03;1.95;;;;;;;22.03;95.25;99253.63;5157909;27;20362;-57
2023/06/10 07:43:26;;;;;;;4.10;2.17;;;;;;;21.38;97.77;99243.34;5158235;27;20099;-54
2023/06/10 07:45:52;;;;;;;12.23;3.53;;;;;;;21.63;100.00;99242.72;5157810;27;20051;-61
2023/06/10 07:48:18;;;;;;;8.32;2.95;;;;;;;21.86;97.27;99238.94;5158187;27;20141;-66
2023/06/10 07:50:44;;;;;;;3.53;2.28;;;;;;;22.17;97.82;99255.28;5157809;27;20050;-59
2023/06/10 07:53:10;;;;;;;5.68;2.45;;;;;;;21.68;96.98;99260.94;5157978;27;20169;-60
2023/06/10 07:55:36;;;;;;;11.73;3.25;;;;;;;21.44;100.00;99244.41;5157932;27;20084;-63
2023/06/10 07:58:02;;;;;;;8.55;2.55;;;;;;;22.92;90.68;99267.81;5157739;27;20055;-61
2023/06/10 08:00:28;;;;;;;7.70;3.15;;;;;;;22.45;97.30;99268.41;5157820;27;20398;-63
2023/06/10 08:02:55;;;;;;;7.47;3.38;;;;;;;20.97;100.00;99261.44;5157377;27;20065;-66
2023/06/10 08:05:21;;;;;;;4.65;2.28;;;;;;;21.15;100.00;99263.78;5157811;27;20072;-64
2023/06/10 08:07:47;;;;;;;7.13;2.80;;;;;;;22.03;99.52;99278.75;5157618;27;20126;-54
2023/06/10 08:10:13;;;;;;;5.38;2.72;;;;;;;21.64;97.52;99269.41;5157803;27;20092;-60
2023/06/10 08:12:40;;;;;;;6.90;3.00;;;;;;;21.92;97.86;99248.31;5157486;27;20336;-67
2023/06/10 08:15:07;;;;;;;7.22;2.70;;;;;;;21.61;99.14;99267.47;5157912;27;20307;-64
2023/06/10 08:17:33;;;;;;;8.00;3.40;;;;;;;21.56;96.75;99263.22;5157367;27;20056;-59
2023/06/10 08:19:59;;;;;;;7.43;3.58;;;;;;;21.91;91.49;99307.38;5157757;27;20050;-54
2023/06/10 08:22:24;;;;;;;6.95;3.58;;;;;;;21.76;95.56;99270.69;5159490;27;20134;-54
2023/06/10 08:24:51;;;;;;;7.28;3.35;;;;;;;22.04;91.60;99272.72;5161145;27;20145;-55
2023/06/10 08:27:16;;;;;;;8.07;3.40;;;;;;;22.46;92.41;99252.44;5161109;27;20071;-66
2023/06/10 08:29:43;;;;;;;7.22;2.95;;;;;;;22.99;86.73;99284.41;5161284;27;20047;-65
2023/06/10 08:32:09;;;;;;;11.93;3.78;;;;;;;22.68;87.12;99283.34;5165919;27;20043;-62
2023/06/10 08:34:35;;;;;;;4.95;2.47;;;;;;;22.66;86.50;99288.56;5165931;27;20046;-62
2023/06/10 08:37:01;;;;;;;4.40;3.33;;;;;;;23.33;79.88;99307.34;5161178;27;20408;-56
2023/06/10 08:39:27;;;;;;;11.40;3.53;;;;;;;23.29;79.43;99292.69;5161004;27;20051;-57
2023/06/10 08:42:05;;;;;;;9.20;3.10;;;;;;;23.25;77.96;99310.34;5160926;27;20046;-64
2023/06/10 08:44:33;;;;;;;11.73;2.97;;;;;;;23.05;80.28;99273.44;5160595;27;20042;-66
2023/06/10 08:47:00;;;;;;;10.10;2.67;;;;;;;22.58;78.30;99304.78;5161044;27;20050;-61
2023/06/10 08:49:27;;;;;;;10.18;2.17;;;;;;;22.13;83.96;99307.63;5160548;27;20134;-66
2023/06/10 08:51:58;;;;;;;5.38;3.15;;;;;;;23.30;79.40;99303.44;5160786;27;20054;-66
2023/06/10 08:54:27;;;;;;;5.75;2.40;;;;;;;23.68;78.10;99311.03;5160630;27;20054;-57
2023/06/10 08:56:55;;;;;;;6.90;3.20;;;;;;;23.48;75.36;99295.22;5160462;27;20050;-56
2023/06/10 08:59:21;;;;;;;4.60;2.97;;;;;;;23.40;76.68;99307.91;5161008;27;20071;-65
2023/06/10 09:01:48;;;;;;;14.10;3.13;;;;;;;23.14;75.18;99309.13;5160354;27;20047;-54
2023/06/10 09:04:16;;;;;;;6.35;2.60;;;;;;;23.44;75.44;99307.78;5160610;27;20050;-57
2023/06/10 09:06:42;;;;;;;4.68;2.28;;;;;;;22.34;79.45;99293.09;5160599;27;20081;-60
2023/06/10 09:09:08;;;;;;;6.22;2.30;;;;;;;23.23;76.67;99306.47;5160782;27;20187;-64
2023/06/10 09:11:34;;;;;;;7.35;2.60;;;;;;;23.23;73.86;99312.84;5160487;27;20134;-54
2023/06/10 09:14:01;;;;;;;11.00;3.28;;;;;;;22.72;79.11;99304.34;5159910;27;20065;-56
2023/06/10 09:16:27;;;;;;;13.75;3.22;;;;;;;23.12;76.58;99308.78;5160068;27;20054;-58
2023/06/10 09:18:55;;;;;;;14.20;3.05;;;;;;;23.24;77.04;99310.81;5160224;27;20066;-56
2023/06/10 09:21:22;;;;;;;7.07;2.95;;;;;;;23.46;75.13;99319.31;5160212;27;20066;-66
2023/06/10 09:23:48;;;;;;;3.35;2.60;;;;;;;23.09;74.39;99312.47;5159814;27;20046;-54
2023/06/10 09:26:14;;;;;;;4.40;2.78;;;;;;;23.58;74.89;99329.69;5160241;27;20450;-65
2023/06/10 09:28:43;;;;;;;5.55;2.97;;;;;;;23.56;73.46;99337.78;5160117;27;20438;-54
2023/06/10 09:31:09;;;;;;;13.35;2.75;;;;;;;24.28;71.81;99335.38;5160375;27;20051;-66
2023/06/10 09:33:37;;;;;;;6.95;3.00;;;;;;;24.61;68.21;99333.00;5159540;27;20051;-61
2023/06/10 09:36:04;;;;;;;5.00;3.15;;;;;;;23.94;70.35;99339.75;5160362;27;20077;-61
2023/06/10 09:38:32;;;;;;;7.82;3.00;;;;;;;24.01;71.93;99313.53;5159745;27;20046;-61
2023/06/10 09:40:58;;;;;;;5.63;2.80;;;;;;;23.85;69.34;99334.81;5160007;27;20507;-60
2023/06/10 09:43:39;;;;;;;18.67;2.80;;;;;;;23.80;69.10;99337.44;5159887;27;20133;-60
2023/06/10 09:46:05;;;;;;;6.82;2.88;;;;;;;23.26;69.67;99341.94;5159731;27;20051;-68
2023/06/10 09:48:35;;;;;;;8.98;2.90;;;;;;;22.95;70.08;99336.06;5160417;27;20061;-64
2023/06/10 09:51:01;;;;;;;7.75;2.88;;;;;;;23.73;69.54;99332.06;5159591;27;20053;-67
2023/06/10 09:53:27;;;;;;;6.00;2.72;;;;;;;22.90;72.16;99331.78;5159712;27;20047;-59
2023/06/10 09:55:54;;;;;;;6.22;2.70;;;;;;;22.59;72.76;99334.25;5159582;27;20309;-53
2023/06/10 09:58:34;;;;;;;6.50;2.90;;;;;;;22.41;73.21;99329.19;5159747;27;20183;-66
2023/06/10 10:01:04;;;;;;;17.95;3.40;;;;;;;22.84;72.53;99322.38;5159403;27;20317;-56
2023/06/10 10:03:30;;;;;;;4.10;2.60;;;;;;;22.38;71.13;99340.47;5159645;27;20054;-55
2023/06/10 10:05:59;;;;;;;5.15;3.30;;;;;;;21.98;73.88;99329.53;5159491;27;20137;-64
2023/06/10 10:08:25;;;;;;;5.15;2.05;;;;;;;22.95;72.05;99333.25;5159251;27;20050;-54
2023/06/10 10:10:51;;;;;;;5.88;2.97;;;;;;;23.16;68.86;99338.22;5159689;27;20057;-54
2023/06/10 10:13:18;;;;;;;8.25;3.40;;;;;;;22.93;69.84;99332.94;5159452;27;20152;-57
2023/06/10 10:15:45;;;;;;;4.32;2.55;;;;;;;22.88;69.60;99334.22;5159687;27;20133;-56
2023/06/10 10:18:17;;;;;;;10.45;2.53;;;;;;;23.35;67.76;99349.63;5159319;27;20042;-57
2023/06/10 10:20:49;;;;;;;6.25;3.30;;;;;;;22.78;70.43;99318.56;5159467;27;20046;-63
2023/06/10 10:23:22;;;;;;;6.82;2.58;;;;;;;22.19;71.03;99333.78;5158830;27;20051;-57
2023/06/10 10:25:53;;;;;;;4.50;2.60;;;;;;;22.68;71.32;99330.84;5159434;27;20129;-56
2023/06/10 10:28:24;;;;;;;10.23;2.15;;;;;;;22.72;70.16;99323.13;5159044;27;20200;-55
2023/06/10 10:30:54;;;;;;;7.00;2.92;;;;;;;22.40;69.51;99329.66;5159167;27;20046;-65
2023/06/10 10:33:28;;;;;;;5.75;2.47;;;;;;;22.32;68.37;99354.19;5159114;27;20416;-67
2023/06/10 10:35:54;;;;;;;;;;;;;;;22.05;70.41;99327.31;5159149;27;20047;-56
2023/06/10 10:38:21;;;;;;;5.20;2.83;;;;;;;21.87;70.81;99335.38;5158778;27;20215;-57
2023/06/10 10:40:48;;;;;;;6.75;3.17;;;;;;;22.74;68.23;99340.25;5158684;27;20369;-64
2023/06/10 10:43:16;;;;;;;4.53;2.25;;;;;;;22.29;69.26;99333.53;5158909;27;20146;-65
2023/06/10 10:45:42;;;;;;;6.75;3.33;;;;;;;22.48;69.13;99323.41;5157798;27;20442;-67
2023/06/10 10:48:11;;;;;;;3.45;2.63;;;;;;;21.62;70.72;99310.88;5158847;27;20051;-63
2023/06/10 10:50:37;;;;;;;4.07;2.38;;;;;;;22.21;71.05;99318.16;5158460;27;20058;-62
2023/06/10 10:53:06;;;;;;;8.00;3.70;;;;;;;21.76;72.06;99324.50;5158393;27;20492;-57
2023/06/10 10:55:33;;;;;;;7.68;2.30;;;;;;;21.48;72.78;99328.75;5158835;27;20111;-65
2023/06/10 10:58:00;;;;;;;8.88;2.92;;;;;;;21.06;73.80;99325.72;5158661;27;20142;-56
2023/06/10 11:00:30;;;;;;;5.43;2.17;;;;;;;21.44;75.90;99314.13;5158643;27;20047;-66
2023/06/10 11:02:59;;;;;;;9.50;2.63;;;;;;;21.66;73.64;99319.97;5158397;27;20110;-55
2023/06/10 11:05:32;;;;;;;6.00;2.55;;;;;;;21.82;71.40;99328.31;5158642;27;20043;-61
2023/06/10 11:07:58;;;;;;;3.15;2.05;;;;;;;21.24;74.12;99349.63;5158664;27;20129;-53
2023/06/10 11:10:31;;;;;;;5.43;3.10;;;;;;;20.91;73.75;99343.97;5159167;27;20164;-56
2023/06/10 11:12:57;;;;;;;5.32;2.60;;;;;;;20.65;76.67;99338.13;5159129;27;20054;-60
2023/06/10 11:15:24;;;;;;;4.68;2.88;;;;;;;20.53;75.50;99329.66;5159074;27;20056;-66
2023/06/10 11:18:14;;;;;;;6.43;2.70;;;;;;;20.72;74.79;99331.63;5158682;27;20083;-57
2023/06/10 11:20:59;;;;;;;4.55;2.40;;;;;;;20.55;75.65;99324.41;5158471;27;20399;-65
2023/06/10 11:23:40;;;;;;;4.90;1.85;;;;;;;21.29;75.43;99341.53;5158222;27;20086;-56
2023/06/10 11:26:21;;;;;;;6.18;2.30;;;;;;;20.82;74.13;99316.66;5155663;27;20411;-60
2023/06/10 11:29:08;;;;;;;2.63;2.05;;;;;;;21.04;72.43;99353.22;5158489;27;20051;-62